Terminal Aerodrome Forecast
Issued by NWS

Home | Current Version | Previous Version | Graphics & Text | Print | Product List | Glossary On
Versions: 1 2 3 4 5 6 7 8 9 10 11 12 13 14 15 16
000
FTUS43 KGRB 172000 AAA
TAFRHI
TAF AMD
KRHI 172008Z 1720/1818 28007KT P6SM BKN015
     FM180200 29004KT P6SM SCT025 SCT250
     FM180600 29003KT 5SM BR SCT006 SCT250
      TEMPO 1808/1812 2SM BR BKN006 BKN250
     FM181200 30003KT 5SM BR SCT012 BKN120
     FM181400 33005KT P6SM SCT030 BKN120=

USA.gov is the U.S. government's official web portal to all federal, state and local government web resources and services.